sensor_id;sensor_type;location;lat;lon;timestamp;pressure;altitude;pressure_sealevel;temperature;humidity
20825;BME280;10573;50.936;6.978;2023-12-20T00:01:34;101102.38;;;10.21;77.82
20825;BME280;10573;50.936;6.978;2023-12-20T00:04:00;101110.06;;;10.16;78.01
20825;BME280;10573;50.936;6.978;2023-12-20T00:06:25;101110.31;;;10.34;77.35
20825;BME280;10573;50.936;6.978;2023-12-20T00:08:51;101107.22;;;10.38;77.11
20825;BME280;10573;50.936;6.978;2023-12-20T00:11:16;101116.25;;;10.39;77.43
20825;BME280;10573;50.936;6.978;2023-12-20T00:13:41;101117.63;;;10.33;77.58
20825;BME280;10573;50.936;6.978;2023-12-20T00:16:07;101118.03;;;10.50;76.89
20825;BME280;10573;50.936;6.978;2023-12-20T00:18:32;101105.44;;;10.49;77.20
20825;BME280;10573;50.936;6.978;2023-12-20T00:20:57;101105.97;;;10.31;77.63
20825;BME280;10573;50.936;6.978;2023-12-20T00:23:23;101113.03;;;10.34;77.47
20825;BME280;10573;50.936;6.978;2023-12-20T00:25:49;101106.06;;;10.20;78.53
20825;BME280;10573;50.936;6.978;2023-12-20T00:28:14;101104.50;;;10.38;77.92
20825;BME280;10573;50.936;6.978;2023-12-20T00:30:40;101118.59;;;10.44;77.84
20825;BME280;10573;50.936;6.978;2023-12-20T00:33:05;101124.50;;;10.49;77.29
20825;BME280;10573;50.936;6.978;2023-12-20T00:35:30;101124.66;;;10.57;77.23
20825;BME280;10573;50.936;6.978;2023-12-20T00:37:56;101131.97;;;10.56;77.38
20825;BME280;10573;50.936;6.978;2023-12-20T00:40:21;101125.81;;;10.54;77.30
20825;BME280;10573;50.936;6.978;2023-12-20T00:42:47;101127.75;;;10.43;76.87
20825;BME280;10573;50.936;6.978;2023-12-20T00:45:13;101132.03;;;10.24;76.55
20825;BME280;10573;50.936;6.978;2023-12-20T00:47:39;101129.50;;;10.32;75.90
20825;BME280;10573;50.936;6.978;2023-12-20T00:50:06;101137.53;;;10.34;75.36
20825;BME280;10573;50.936;6.978;2023-12-20T00:52:31;101135.91;;;10.43;74.83
20825;BME280;10573;50.936;6.978;2023-12-20T00:54:56;101138.94;;;10.28;74.84
20825;BME280;10573;50.936;6.978;2023-12-20T00:57:22;101148.66;;;10.21;74.94
20825;BME280;10573;50.936;6.978;2023-12-20T00:59:47;101141.88;;;10.15;75.22
20825;BME280;10573;50.936;6.978;2023-12-20T01:02:13;101145.34;;;10.38;74.51
20825;BME280;10573;50.936;6.978;2023-12-20T01:04:38;101141.38;;;10.31;75.14
20825;BME280;10573;50.936;6.978;2023-12-20T01:07:03;101135.16;;;10.40;74.70
20825;BME280;10573;50.936;6.978;2023-12-20T01:09:29;101142.28;;;10.32;74.77
20825;BME280;10573;50.936;6.978;2023-12-20T01:11:54;101142.97;;;10.34;74.91
20825;BME280;10573;50.936;6.978;2023-12-20T01:14:20;101140.91;;;10.37;74.79
20825;BME280;10573;50.936;6.978;2023-12-20T01:16:45;101149.53;;;10.43;74.15
20825;BME280;10573;50.936;6.978;2023-12-20T01:19:11;101141.63;;;10.39;74.42
20825;BME280;10573;50.936;6.978;2023-12-20T01:21:36;101154.09;;;10.21;74.88
20825;BME280;10573;50.936;6.978;2023-12-20T01:24:02;101147.91;;;10.19;74.98
20825;BME280;10573;50.936;6.978;2023-12-20T01:26:28;101148.47;;;10.13;75.11
20825;BME280;10573;50.936;6.978;2023-12-20T01:28:53;101144.19;;;9.78;75.92
20825;BME280;10573;50.936;6.978;2023-12-20T01:31:19;101151.78;;;9.95;75.44
20825;BME280;10573;50.936;6.978;2023-12-20T01:33:44;101149.97;;;10.05;74.98
20825;BME280;10573;50.936;6.978;2023-12-20T01:36:09;101160.59;;;9.87;75.33
20825;BME280;10573;50.936;6.978;2023-12-20T01:38:35;101164.91;;;10.11;74.25
20825;BME280;10573;50.936;6.978;2023-12-20T01:41:00;101161.31;;;10.11;74.39
20825;BME280;10573;50.936;6.978;2023-12-20T01:43:26;101164.56;;;10.25;73.96
20825;BME280;10573;50.936;6.978;2023-12-20T01:45:51;101170.22;;;10.34;74.00
20825;BME280;10573;50.936;6.978;2023-12-20T01:48:18;101182.03;;;10.23;73.95
20825;BME280;10573;50.936;6.978;2023-12-20T01:50:45;101177.06;;;10.39;73.44
20825;BME280;10573;50.936;6.978;2023-12-20T01:53:12;101176.25;;;10.49;73.17
20825;BME280;10573;50.936;6.978;2023-12-20T01:55:41;101179.22;;;10.46;73.55
20825;BME280;10573;50.936;6.978;2023-12-20T01:58:11;101186.41;;;10.47;73.44
20825;BME280;10573;50.936;6.978;2023-12-20T02:00:37;101194.28;;;10.50;73.02
20825;BME280;10573;50.936;6.978;2023-12-20T02:03:03;101192.03;;;10.55;72.87
20825;BME280;10573;50.936;6.978;2023-12-20T02:05:32;101187.16;;;10.49;72.75
20825;BME280;10573;50.936;6.978;2023-12-20T02:07:57;101192.16;;;10.32;72.73
20825;BME280;10573;50.936;6.978;2023-12-20T02:10:24;101188.00;;;9.96;72.31
20825;BME280;10573;50.936;6.978;2023-12-20T02:12:49;101198.06;;;9.51;71.29
20825;BME280;10573;50.936;6.978;2023-12-20T02:15:15;101189.69;;;9.76;70.51
20825;BME280;10573;50.936;6.978;2023-12-20T02:17:41;101186.63;;;9.69;70.46
20825;BME280;10573;50.936;6.978;2023-12-20T02:20:06;101205.63;;;9.36;70.76
20825;BME280;10573;50.936;6.978;2023-12-20T02:22:32;101203.34;;;9.64;69.81
20825;BME280;10573;50.936;6.978;2023-12-20T02:24:57;101211.44;;;9.43;69.46
20825;BME280;10573;50.936;6.978;2023-12-20T02:27:23;101209.69;;;9.42;69.59
20825;BME280;10573;50.936;6.978;2023-12-20T02:29:50;101225.66;;;9.13;70.27
20825;BME280;10573;50.936;6.978;2023-12-20T02:32:16;101208.97;;;9.40;69.42
20825;BME280;10573;50.936;6.978;2023-12-20T02:34:43;101225.28;;;9.06;70.27
20825;BME280;10573;50.936;6.978;2023-12-20T02:37:08;101225.16;;;9.30;69.52
20825;BME280;10573;50.936;6.978;2023-12-20T02:39:33;101237.50;;;9.12;70.08
20825;BME280;10573;50.936;6.978;2023-12-20T02:41:59;101230.59;;;9.42;69.50
20825;BME280;10573;50.936;6.978;2023-12-20T02:44:24;101225.03;;;9.32;69.91
20825;BME280;10573;50.936;6.978;2023-12-20T02:46:50;101235.78;;;8.99;70.78
20825;BME280;10573;50.936;6.978;2023-12-20T02:49:15;101235.94;;;9.09;70.92
20825;BME280;10573;50.936;6.978;2023-12-20T02:51:40;101235.28;;;9.17;70.62
20825;BME280;10573;50.936;6.978;2023-12-20T02:54:06;101234.06;;;9.10;70.45
20825;BME280;10573;50.936;6.978;2023-12-20T02:56:34;101230.81;;;9.38;69.97
20825;BME280;10573;50.936;6.978;2023-12-20T02:59:00;101226.84;;;9.43;70.12
20825;BME280;10573;50.936;6.978;2023-12-20T03:01:27;101241.59;;;9.29;70.05
20825;BME280;10573;50.936;6.978;2023-12-20T03:03:52;101239.13;;;9.26;70.10
20825;BME280;10573;50.936;6.978;2023-12-20T03:06:18;101237.41;;;9.13;70.13
20825;BME280;10573;50.936;6.978;2023-12-20T03:08:44;101234.81;;;9.23;69.96
20825;BME280;10573;50.936;6.978;2023-12-20T03:11:09;101236.28;;;9.16;70.09
20825;BME280;10573;50.936;6.978;2023-12-20T03:13:34;101241.72;;;9.16;69.99
20825;BME280;10573;50.936;6.978;2023-12-20T03:16:00;101243.97;;;9.11;70.02
20825;BME280;10573;50.936;6.978;2023-12-20T03:18:25;101229.13;;;9.26;70.00
20825;BME280;10573;50.936;6.978;2023-12-20T03:20:53;101236.66;;;9.22;69.89
20825;BME280;10573;50.936;6.978;2023-12-20T03:23:18;101236.06;;;9.19;70.10
20825;BME280;10573;50.936;6.978;2023-12-20T03:25:43;101234.31;;;8.95;70.97
20825;BME280;10573;50.936;6.978;2023-12-20T03:28:09;101227.13;;;9.17;70.71
20825;BME280;10573;50.936;6.978;2023-12-20T03:30:34;101232.47;;;9.07;70.48
20825;BME280;10573;50.936;6.978;2023-12-20T03:32:59;101236.78;;;9.10;70.66
20825;BME280;10573;50.936;6.978;2023-12-20T03:35:25;101233.06;;;9.33;70.23
20825;BME280;10573;50.936;6.978;2023-12-20T03:37:50;101227.66;;;9.11;70.48
20825;BME280;10573;50.936;6.978;2023-12-20T03:40:16;101231.13;;;9.01;70.34
20825;BME280;10573;50.936;6.978;2023-12-20T03:42:41;101226.88;;;9.31;69.87
20825;BME280;10573;50.936;6.978;2023-12-20T03:45:07;101223.09;;;9.00;69.96
20825;BME280;10573;50.936;6.978;2023-12-20T03:47:32;101226.41;;;9.03;70.16
20825;BME280;10573;50.936;6.978;2023-12-20T03:49:58;101225.81;;;9.00;70.09
20825;BME280;10573;50.936;6.978;2023-12-20T03:52:23;101223.31;;;8.97;70.34
20825;BME280;10573;50.936;6.978;2023-12-20T03:54:48;101218.22;;;9.26;70.01
20825;BME280;10573;50.936;6.978;2023-12-20T03:57:14;101215.38;;;9.28;69.99
20825;BME280;10573;50.936;6.978;2023-12-20T03:59:39;101228.13;;;9.16;70.03
20825;BME280;10573;50.936;6.978;2023-12-20T04:02:04;101215.88;;;9.33;70.03
20825;BME280;10573;50.936;6.978;2023-12-20T04:04:30;101225.53;;;9.03;69.89
20825;BME280;10573;50.936;6.978;2023-12-20T04:06:55;101222.69;;;9.27;69.33
20825;BME280;10573;50.936;6.978;2023-12-20T04:09:21;101220.94;;;9.49;69.15
20825;BME280;10573;50.936;6.978;2023-12-20T04:11:46;101215.97;;;9.43;68.91
20825;BME280;10573;50.936;6.978;2023-12-20T04:14:11;101218.47;;;9.34;69.37
20825;BME280;10573;50.936;6.978;2023-12-20T04:16:37;101225.03;;;9.32;69.21
20825;BME280;10573;50.936;6.978;2023-12-20T04:19:04;101225.91;;;9.10;69.77
20825;BME280;10573;50.936;6.978;2023-12-20T04:21:29;101216.75;;;9.33;69.44
20825;BME280;10573;50.936;6.978;2023-12-20T04:23:55;101214.03;;;9.33;69.01
20825;BME280;10573;50.936;6.978;2023-12-20T04:26:20;101210.59;;;9.20;69.62
20825;BME280;10573;50.936;6.978;2023-12-20T04:28:45;101214.28;;;9.30;69.38
20825;BME280;10573;50.936;6.978;2023-12-20T04:31:11;101220.22;;;9.35;69.01
20825;BME280;10573;50.936;6.978;2023-12-20T04:33:36;101217.13;;;9.40;68.89
20825;BME280;10573;50.936;6.978;2023-12-20T04:36:01;101223.19;;;9.21;69.50
20825;BME280;10573;50.936;6.978;2023-12-20T04:38:27;101221.69;;;9.17;69.77
20825;BME280;10573;50.936;6.978;2023-12-20T04:40:52;101222.66;;;9.38;69.10
20825;BME280;10573;50.936;6.978;2023-12-20T04:43:17;101225.50;;;9.37;69.36
20825;BME280;10573;50.936;6.978;2023-12-20T04:45:43;101238.75;;;9.07;69.55
20825;BME280;10573;50.936;6.978;2023-12-20T04:48:08;101248.78;;;8.96;70.38
20825;BME280;10573;50.936;6.978;2023-12-20T04:50:34;101252.81;;;8.90;70.04
20825;BME280;10573;50.936;6.978;2023-12-20T04:52:59;101249.16;;;9.14;69.60
20825;BME280;10573;50.936;6.978;2023-12-20T04:55:25;101243.97;;;9.11;69.67
20825;BME280;10573;50.936;6.978;2023-12-20T04:57:50;101242.22;;;9.21;69.37
20825;BME280;10573;50.936;6.978;2023-12-20T05:00:15;101249.63;;;8.96;69.65
20825;BME280;10573;50.936;6.978;2023-12-20T05:02:41;101239.13;;;9.14;69.35
20825;BME280;10573;50.936;6.978;2023-12-20T05:05:07;101240.13;;;9.02;69.59
20825;BME280;10573;50.936;6.978;2023-12-20T05:07:32;101243.44;;;8.94;69.77
20825;BME280;10573;50.936;6.978;2023-12-20T05:09:58;101233.81;;;9.01;69.82
20825;BME280;10573;50.936;6.978;2023-12-20T05:12:23;101233.81;;;8.79;70.00
20825;BME280;10573;50.936;6.978;2023-12-20T05:14:49;101234.06;;;8.87;69.71
20825;BME280;10573;50.936;6.978;2023-12-20T05:17:14;101237.53;;;8.89;69.55
20825;BME280;10573;50.936;6.978;2023-12-20T05:19:40;101236.50;;;8.67;69.89
20825;BME280;10573;50.936;6.978;2023-12-20T05:22:05;101236.88;;;8.74;69.69
20825;BME280;10573;50.936;6.978;2023-12-20T05:24:31;101249.50;;;8.39;70.49
20825;BME280;10573;50.936;6.978;2023-12-20T05:26:56;101243.06;;;8.87;69.91
20825;BME280;10573;50.936;6.978;2023-12-20T05:29:21;101249.88;;;8.93;69.79
20825;BME280;10573;50.936;6.978;2023-12-20T05:31:47;101242.09;;;8.77;69.74
20825;BME280;10573;50.936;6.978;2023-12-20T05:34:12;101233.56;;;8.82;69.15
20825;BME280;10573;50.936;6.978;2023-12-20T05:36:38;101237.38;;;8.68;69.85
20825;BME280;10573;50.936;6.978;2023-12-20T05:39:04;101235.63;;;8.67;69.68
20825;BME280;10573;50.936;6.978;2023-12-20T05:41:30;101236.88;;;8.74;70.05
20825;BME280;10573;50.936;6.978;2023-12-20T05:43:56;101239.84;;;8.71;69.85
20825;BME280;10573;50.936;6.978;2023-12-20T05:46:23;101233.06;;;8.77;70.11
20825;BME280;10573;50.936;6.978;2023-12-20T05:48:49;101236.03;;;8.73;69.57
20825;BME280;10573;50.936;6.978;2023-12-20T05:51:14;101230.72;;;8.83;69.34
20825;BME280;10573;50.936;6.978;2023-12-20T05:53:40;101228.16;;;8.93;69.76
20825;BME280;10573;50.936;6.978;2023-12-20T05:56:05;101231.94;;;8.68;69.86
20825;BME280;10573;50.936;6.978;2023-12-20T05:58:33;101230.88;;;8.93;69.75
20825;BME280;10573;50.936;6.978;2023-12-20T06:00:59;101229.22;;;8.79;69.58
20825;BME280;10573;50.936;6.978;2023-12-20T06:03:24;101234.41;;;8.60;69.80
20825;BME280;10573;50.936;6.978;2023-12-20T06:05:49;101229.88;;;8.83;69.62
20825;BME280;10573;50.936;6.978;2023-12-20T06:08:15;101233.56;;;8.70;69.62
20825;BME280;10573;50.936;6.978;2023-12-20T06:10:40;101239.50;;;8.98;68.92
20825;BME280;10573;50.936;6.978;2023-12-20T06:13:06;101242.09;;;8.77;69.62
20825;BME280;10573;50.936;6.978;2023-12-20T06:15:32;101235.03;;;8.86;69.36
20825;BME280;10573;50.936;6.978;2023-12-20T06:17:58;101240.94;;;8.57;70.11
20825;BME280;10573;50.936;6.978;2023-12-20T06:20:23;101233.81;;;8.79;70.02
20825;BME280;10573;50.936;6.978;2023-12-20T06:22:49;101242.97;;;9.00;69.80
20825;BME280;10573;50.936;6.978;2023-12-20T06:25:15;101241.72;;;8.93;69.91
20825;BME280;10573;50.936;6.978;2023-12-20T06:27:40;101247.38;;;8.90;70.02
20825;BME280;10573;50.936;6.978;2023-12-20T06:30:07;101247.59;;;8.64;70.46
20825;BME280;10573;50.936;6.978;2023-12-20T06:32:34;101252.69;;;8.69;70.52
20825;BME280;10573;50.936;6.978;2023-12-20T06:35:00;101249.38;;;8.88;70.32
20825;BME280;10573;50.936;6.978;2023-12-20T06:37:25;101250.88;;;8.92;70.17
20825;BME280;10573;50.936;6.978;2023-12-20T06:39:51;101244.28;;;8.83;70.48
20825;BME280;10573;50.936;6.978;2023-12-20T06:42:16;101250.84;;;8.81;70.29
20825;BME280;10573;50.936;6.978;2023-12-20T06:44:43;101254.28;;;8.60;70.98
20825;BME280;10573;50.936;6.978;2023-12-20T06:47:08;101247.59;;;8.64;70.83
20825;BME280;10573;50.936;6.978;2023-12-20T06:49:34;101248.38;;;8.78;70.49
20825;BME280;10573;50.936;6.978;2023-12-20T06:52:01;101254.28;;;8.71;70.57
20825;BME280;10573;50.936;6.978;2023-12-20T06:54:27;101253.56;;;9.03;70.18
20825;BME280;10573;50.936;6.978;2023-12-20T06:56:52;101248.28;;;8.90;69.82
20825;BME280;10573;50.936;6.978;2023-12-20T06:59:18;101259.75;;;8.83;69.94
20825;BME280;10573;50.936;6.978;2023-12-20T07:01:48;101258.75;;;8.84;69.96
20825;BME280;10573;50.936;6.978;2023-12-20T07:04:13;101257.28;;;8.91;69.80
20825;BME280;10573;50.936;6.978;2023-12-20T07:06:38;101261.47;;;8.95;69.57
20825;BME280;10573;50.936;6.978;2023-12-20T07:09:04;101252.31;;;8.73;69.39
20825;BME280;10573;50.936;6.978;2023-12-20T07:11:29;101254.28;;;8.71;69.90
20825;BME280;10573;50.936;6.978;2023-12-20T07:13:54;101258.84;;;8.71;70.25
20825;BME280;10573;50.936;6.978;2023-12-20T07:16:20;101239.50;;;8.76;69.55
20825;BME280;10573;50.936;6.978;2023-12-20T07:18:48;101239.47;;;8.64;69.56
20825;BME280;10573;50.936;6.978;2023-12-20T07:21:14;101251.72;;;8.93;68.90
20825;BME280;10573;50.936;6.978;2023-12-20T07:23:41;101260.25;;;8.88;68.60
20825;BME280;10573;50.936;6.978;2023-12-20T07:26:06;101247.66;;;8.76;68.82
20825;BME280;10573;50.936;6.978;2023-12-20T07:28:31;101251.00;;;9.02;68.20
20825;BME280;10573;50.936;6.978;2023-12-20T07:30:57;101258.84;;;8.71;69.19
20825;BME280;10573;50.936;6.978;2023-12-20T07:33:22;101252.09;;;8.88;68.75
20825;BME280;10573;50.936;6.978;2023-12-20T07:35:48;101257.41;;;8.89;68.33
20825;BME280;10573;50.936;6.978;2023-12-20T07:38:13;101255.41;;;8.92;68.68
20825;BME280;10573;50.936;6.978;2023-12-20T07:40:39;101257.53;;;8.99;67.66
20825;BME280;10573;50.936;6.978;2023-12-20T07:43:05;101255.31;;;8.93;68.13
20825;BME280;10573;50.936;6.978;2023-12-20T07:45:30;101262.28;;;8.62;68.38
20825;BME280;10573;50.936;6.978;2023-12-20T07:47:57;101255.53;;;8.79;68.63
20825;BME280;10573;50.936;6.978;2023-12-20T07:50:22;101262.59;;;8.93;68.22
20825;BME280;10573;50.936;6.978;2023-12-20T07:52:48;101254.09;;;8.97;68.18
20825;BME280;10573;50.936;6.978;2023-12-20T07:55:13;101261.09;;;8.88;68.02
20825;BME280;10573;50.936;6.978;2023-12-20T07:57:39;101254.31;;;8.94;68.00
20825;BME280;10573;50.936;6.978;2023-12-20T08:00:04;101263.69;;;8.90;68.27
20825;BME280;10573;50.936;6.978;2023-12-20T08:02:30;101254.28;;;8.71;68.46
20825;BME280;10573;50.936;6.978;2023-12-20T08:04:56;101255.53;;;8.79;68.16
20825;BME280;10573;50.936;6.978;2023-12-20T08:07:21;101261.22;;;8.98;67.82
20825;BME280;10573;50.936;6.978;2023-12-20T08:09:48;101247.91;;;8.84;67.58
20825;BME280;10573;50.936;6.978;2023-12-20T08:12:13;101253.81;;;9.12;67.78
20825;BME280;10573;50.936;6.978;2023-12-20T08:14:39;101250.88;;;8.92;67.02
20825;BME280;10573;50.936;6.978;2023-12-20T08:17:04;101260.75;;;8.93;67.16
20825;BME280;10573;50.936;6.978;2023-12-20T08:19:30;101263.94;;;8.87;67.23
20825;BME280;10573;50.936;6.978;2023-12-20T08:21:55;101264.97;;;8.97;68.09
20825;BME280;10573;50.936;6.978;2023-12-20T08:24:20;101264.94;;;8.86;67.50
20825;BME280;10573;50.936;6.978;2023-12-20T08:26:46;101272.69;;;8.79;67.68
20825;BME280;10573;50.936;6.978;2023-12-20T08:29:14;101270.91;;;9.02;67.19
20825;BME280;10573;50.936;6.978;2023-12-20T08:31:40;101269.13;;;8.90;67.29
20825;BME280;10573;50.936;6.978;2023-12-20T08:34:05;101277.31;;;9.01;67.08
20825;BME280;10573;50.936;6.978;2023-12-20T08:36:31;101271.63;;;8.93;67.38
20825;BME280;10573;50.936;6.978;2023-12-20T08:38:56;101263.56;;;8.80;67.49
20825;BME280;10573;50.936;6.978;2023-12-20T08:41:21;101259.00;;;9.03;66.96
20825;BME280;10573;50.936;6.978;2023-12-20T08:43:47;101261.97;;;9.00;66.99
20825;BME280;10573;50.936;6.978;2023-12-20T08:46:14;101263.59;;;9.03;66.78
20825;BME280;10573;50.936;6.978;2023-12-20T08:48:39;101276.69;;;9.20;66.28
20825;BME280;10573;50.936;6.978;2023-12-20T08:51:05;101267.91;;;8.94;66.61
20825;BME280;10573;50.936;6.978;2023-12-20T08:53:34;101270.41;;;8.97;66.62
20825;BME280;10573;50.936;6.978;2023-12-20T08:55:59;101268.28;;;9.12;66.21
20825;BME280;10573;50.936;6.978;2023-12-20T08:58:27;101271.38;;;9.30;65.73
20825;BME280;10573;50.936;6.978;2023-12-20T09:00:53;101274.09;;;9.19;66.07
20825;BME280;10573;50.936;6.978;2023-12-20T09:03:19;101279.03;;;9.14;66.16
20825;BME280;10573;50.936;6.978;2023-12-20T09:05:45;101274.09;;;9.19;66.15
20825;BME280;10573;50.936;6.978;2023-12-20T09:08:10;101278.56;;;9.31;65.93
20825;BME280;10573;50.936;6.978;2023-12-20T09:10:37;101278.78;;;9.39;65.56
20825;BME280;10573;50.936;6.978;2023-12-20T09:13:03;101277.06;;;9.04;66.01
20825;BME280;10573;50.936;6.978;2023-12-20T09:15:29;101275.56;;;9.00;66.53
20825;BME280;10573;50.936;6.978;2023-12-20T09:17:56;101280.97;;;8.78;66.45
20825;BME280;10573;50.936;6.978;2023-12-20T09:20:21;101272.97;;;9.10;65.98
20825;BME280;10573;50.936;6.978;2023-12-20T09:22:48;101266.56;;;9.00;66.49
20825;BME280;10573;50.936;6.978;2023-12-20T09:25:14;101255.31;;;9.04;66.16
20825;BME280;10573;50.936;6.978;2023-12-20T09:27:41;101269.66;;;9.18;65.75
20825;BME280;10573;50.936;6.978;2023-12-20T09:30:07;101270.00;;;8.90;66.12
20825;BME280;10573;50.936;6.978;2023-12-20T09:32:32;101266.78;;;8.85;66.34
20825;BME280;10573;50.936;6.978;2023-12-20T09:35:02;101263.69;;;8.90;66.46
20825;BME280;10573;50.936;6.978;2023-12-20T09:37:28;101264.06;;;8.97;66.13
20825;BME280;10573;50.936;6.978;2023-12-20T09:39:54;101263.84;;;9.00;66.09
20825;BME280;10573;50.936;6.978;2023-12-20T09:42:25;101264.34;;;9.39;65.78
20825;BME280;10573;50.936;6.978;2023-12-20T09:44:54;101263.31;;;8.83;66.04
20825;BME280;10573;50.936;6.978;2023-12-20T09:47:22;101255.56;;;9.01;66.28
20825;BME280;10573;50.936;6.978;2023-12-20T09:49:50;101259.50;;;8.75;66.80
20825;BME280;10573;50.936;6.978;2023-12-20T09:52:18;101245.06;;;8.97;66.61
20825;BME280;10573;50.936;6.978;2023-12-20T09:54:47;101244.09;;;9.09;66.07
20825;BME280;10573;50.936;6.978;2023-12-20T09:57:15;101249.50;;;9.20;65.34
20825;BME280;10573;50.936;6.978;2023-12-20T09:59:41;101246.03;;;9.18;65.67
20825;BME280;10573;50.936;6.978;2023-12-20T10:02:11;101258.53;;;9.21;65.61
20825;BME280;10573;50.936;6.978;2023-12-20T10:04:39;101261.38;;;9.31;66.24
20825;BME280;10573;50.936;6.978;2023-12-20T10:07:08;101254.84;;;9.33;65.71
20825;BME280;10573;50.936;6.978;2023-12-20T10:09:33;101256.78;;;9.31;65.83
20825;BME280;10573;50.936;6.978;2023-12-20T10:12:00;101254.69;;;9.23;65.56
20825;BME280;10573;50.936;6.978;2023-12-20T10:14:25;101264.94;;;9.09;66.19
20825;BME280;10573;50.936;6.978;2023-12-20T10:16:51;101255.56;;;9.13;66.26
20825;BME280;10573;50.936;6.978;2023-12-20T10:19:19;101248.50;;;9.10;66.47
20825;BME280;10573;50.936;6.978;2023-12-20T10:21:45;101248.28;;;9.13;65.89
20825;BME280;10573;50.936;6.978;2023-12-20T10:24:16;101247.53;;;9.00;66.10
20825;BME280;10573;50.936;6.978;2023-12-20T10:26:42;101238.75;;;9.07;66.25
20825;BME280;10573;50.936;6.978;2023-12-20T10:29:07;101233.69;;;9.14;65.89
20825;BME280;10573;50.936;6.978;2023-12-20T10:31:33;101230.38;;;9.33;65.39
20825;BME280;10573;50.936;6.978;2023-12-20T10:34:01;101226.03;;;8.97;65.74
20825;BME280;10573;50.936;6.978;2023-12-20T10:36:28;101239.97;;;9.26;65.23
20825;BME280;10573;50.936;6.978;2023-12-20T10:38:55;101223.91;;;9.12;65.68
20825;BME280;10573;50.936;6.978;2023-12-20T10:41:30;101226.66;;;9.23;65.01
20825;BME280;10573;50.936;6.978;2023-12-20T10:44:00;101222.81;;;8.92;66.22
20825;BME280;10573;50.936;6.978;2023-12-20T10:46:27;101221.59;;;9.07;65.91
20825;BME280;10573;50.936;6.978;2023-12-20T10:48:58;101225.44;;;8.93;66.05
20825;BME280;10573;50.936;6.978;2023-12-20T10:51:24;101206.66;;;9.01;65.73
20825;BME280;10573;50.936;6.978;2023-12-20T10:53:52;101205.16;;;9.09;66.03
20825;BME280;10573;50.936;6.978;2023-12-20T10:56:19;101208.88;;;8.96;66.12
20825;BME280;10573;50.936;6.978;2023-12-20T10:58:45;101214.69;;;9.03;66.13
20825;BME280;10573;50.936;6.978;2023-12-20T11:01:16;101213.53;;;9.17;65.38
20825;BME280;10573;50.936;6.978;2023-12-20T11:03:53;101215.25;;;9.29;65.56
20825;BME280;10573;50.936;6.978;2023-12-20T11:06:46;101209.59;;;9.32;65.49
20825;BME280;10573;50.936;6.978;2023-12-20T11:09:35;101209.81;;;9.29;65.39
20825;BME280;10573;50.936;6.978;2023-12-20T11:14:38;101203.44;;;9.19;65.45
20825;BME280;10573;50.936;6.978;2023-12-20T11:17:09;101210.34;;;9.23;65.63
20825;BME280;10573;50.936;6.978;2023-12-20T11:22:32;101207.09;;;9.29;65.57
20825;BME280;10573;50.936;6.978;2023-12-20T11:25:09;101211.75;;;9.61;64.65
20825;BME280;10573;50.936;6.978;2023-12-20T11:27:36;101210.31;;;9.34;65.31
20825;BME280;10573;50.936;6.978;2023-12-20T11:30:05;101212.31;;;9.32;65.54
20825;BME280;10573;50.936;6.978;2023-12-20T11:32:35;101201.66;;;9.40;65.30
20825;BME280;10573;50.936;6.978;2023-12-20T11:37:36;101183.25;;;9.77;64.39
20825;BME280;10573;50.936;6.978;2023-12-20T11:40:05;101179.44;;;9.79;64.16
20825;BME280;10573;50.936;6.978;2023-12-20T11:42:50;101181.16;;;9.25;64.76
20825;BME280;10573;50.936;6.978;2023-12-20T11:45:24;101180.88;;;9.51;64.86
20825;BME280;10573;50.936;6.978;2023-12-20T11:47:50;101183.28;;;9.10;65.79
20825;BME280;10573;50.936;6.978;2023-12-20T11:50:17;101176.38;;;9.61;64.67
20825;BME280;10573;50.936;6.978;2023-12-20T11:52:43;101174.47;;;9.40;64.97
20825;BME280;10573;50.936;6.978;2023-12-20T11:55:08;101178.25;;;9.49;64.73
20825;BME280;10573;50.936;6.978;2023-12-20T11:57:34;101174.19;;;9.44;65.03
20825;BME280;10573;50.936;6.978;2023-12-20T12:00:01;101181.66;;;9.30;65.21
20825;BME280;10573;50.936;6.978;2023-12-20T12:02:27;101179.16;;;9.38;64.70
20825;BME280;10573;50.936;6.978;2023-12-20T12:04:52;101168.63;;;9.56;64.58
20825;BME280;10573;50.936;6.978;2023-12-20T12:07:20;101164.28;;;9.54;64.64
20825;BME280;10573;50.936;6.978;2023-12-20T12:09:45;101163.53;;;9.52;64.74
20825;BME280;10573;50.936;6.978;2023-12-20T12:12:12;101157.78;;;9.99;63.96
20825;BME280;10573;50.936;6.978;2023-12-20T12:14:38;101152.41;;;9.87;63.57
20825;BME280;10573;50.936;6.978;2023-12-20T12:17:04;101153.97;;;9.69;64.15
20825;BME280;10573;50.936;6.978;2023-12-20T12:19:30;101155.38;;;9.63;64.22
20825;BME280;10573;50.936;6.978;2023-12-20T12:22:10;101148.66;;;9.67;64.39
20825;BME280;10573;50.936;6.978;2023-12-20T12:24:43;101145.47;;;9.62;64.44
20825;BME280;10573;50.936;6.978;2023-12-20T12:27:09;101131.69;;;9.43;64.88
20825;BME280;10573;50.936;6.978;2023-12-20T12:29:37;101135.91;;;9.68;64.55
20825;BME280;10573;50.936;6.978;2023-12-20T12:32:09;101118.44;;;9.49;65.11
20825;BME280;10573;50.936;6.978;2023-12-20T12:34:35;101132.16;;;9.48;65.05
20825;BME280;10573;50.936;6.978;2023-12-20T12:37:03;101125.16;;;9.66;65.23
20825;BME280;10573;50.936;6.978;2023-12-20T12:39:29;101125.88;;;9.47;65.49
20825;BME280;10573;50.936;6.978;2023-12-20T12:41:55;101121.41;;;9.79;65.02
20825;BME280;10573;50.936;6.978;2023-12-20T12:44:21;101124.66;;;9.72;64.92
20825;BME280;10573;50.936;6.978;2023-12-20T12:46:49;101111.13;;;9.82;64.66
20825;BME280;10573;50.936;6.978;2023-12-20T12:49:19;101109.94;;;9.96;64.25
20825;BME280;10573;50.936;6.978;2023-12-20T12:51:45;101120.00;;;9.63;64.92
20825;BME280;10573;50.936;6.978;2023-12-20T12:54:10;101116.09;;;9.77;64.96
20825;BME280;10573;50.936;6.978;2023-12-20T12:56:38;101119.91;;;9.86;64.87
20825;BME280;10573;50.936;6.978;2023-12-20T12:59:03;101122.72;;;9.63;65.68
20825;BME280;10573;50.936;6.978;2023-12-20T13:01:31;101121.13;;;9.61;66.06